Wednesday, June 20, 2018, 7:46 AM GMT
Back to Local

CYSJ, Saint John, N. B.

Location: , , Canada Lat: 45.333
Local Time: 7:46 AM GMT ( 7:46 GMT) Lon: -65.883
Time Zone: GMT Elev: 337 ft

Show me the last for .
Show Decoded

2018-06-20 07:00 METAR CYSJ 200700Z 00000KT 15SM SKC 07/06 A2976 RMK SLP079 =
2018-06-20 06:00 METAR CYSJ 200600Z VRB02KT 15SM SKC 09/08 A2975 RMK SLP078 =
2018-06-20 05:00 METAR CYSJ 200500Z 27004KT 230V310 15SM SKC 12/08 A2975 RMK SLP076 =
2018-06-20 04:00 METAR CYSJ 200400Z 31005KT 15SM SKC 15/08 A2974 RMK SLP073 DENSITY ALT 700FT =
2018-06-20 03:00 METAR CYSJ 200300Z 28004KT 15SM SKC 14/08 A2972 RMK SLP067 DENSITY ALT 600FT =
2018-06-20 02:00 METAR CYSJ 200200Z 29006KT 15SM SKC 16/08 A2971 RMK SLP063 DENSITY ALT 800FT =
2018-06-20 01:00 METAR CYSJ 200100Z 31007KT 15SM FEW080 17/08 A2970 RMK AC1 SLP060 DENSITY ALT
                 900FT =
2018-06-20 00:00 METAR CYSJ 200000Z 31012G17KT 15SM FEW070 18/08 A2968 RMK AC2 SLP052 DENSITY ALT
                 1100FT =
2018-06-19 23:00 METAR CYSJ 192300Z 32016G23KT 15SM SCT060 19/08 A2965 RMK SC3 SLP043 DENSITY ALT
                 1300FT =
2018-06-19 22:00 METAR CYSJ 192200Z 32017G30KT 15SM SCT057 BKN290 21/09 A2963 RMK SC4CC2 SLP034
                 DENSITY ALT 1500FT =
2018-06-19 21:00 METAR CYSJ 192100Z 33018G24KT 15SM SCT058 BKN290 21/08 A2961 RMK SC4CI1 SLP027
                 DENSITY ALT 1600FT =
2018-06-19 20:00 METAR CYSJ 192000Z 31015G25KT 15SM SCT053 21/08 A2959 RMK SC3 SLP023 DENSITY ALT
                 1600FT =
2018-06-19 19:00 METAR CYSJ 191900Z 32021G28KT 15SM SCT042 21/09 A2959 RMK SC3 SLP021 DENSITY ALT
                 1500FT =
2018-06-19 18:00 METAR CYSJ 191800Z 30018G30KT 15SM BKN045 21/09 A2958 RMK SC5 SLP018 DENSITY ALT
                 1600FT =
2018-06-19 17:00 METAR CYSJ 191700Z 32018G26KT 15SM BKN043 21/10 A2956 RMK SC5 SLP012 DENSITY ALT
                 1600FT =
2018-06-19 16:00 METAR CYSJ 191600Z 30018G27KT 15SM BKN042 20/11 A2956 RMK SC5 SLP011 DENSITY ALT
                 1500FT =
2018-06-19 15:00 METAR CYSJ 191500Z 30015G22KT 15SM BKN036 20/11 A2954 RMK CU5 SLP006 DENSITY ALT
                 1400FT =
2018-06-19 14:00 METAR CYSJ 191400Z 32017G22KT 15SM SCT025 BKN290 21/14 A2953 RMK CU4CI2 SLP002
                 DENSITY ALT 1600FT =
2018-06-19 13:12 METAR CYSJ 191312Z 32014G22KT 15SM BKN021 BKN270 19/15 A2952 RMK SC5CI1 SLP000
                 DENSITY ALT 1400FT =
2018-06-19 13:00 METAR CYSJ 191300Z 33016G23KT 15SM SCT022 19/15 A2952 RMK SC4 SLP999 DENSITY ALT
                 1400FT =
2018-06-19 12:00 METAR CYSJ 191200Z 33018G23KT 15SM SCT017 SCT120 19/15 A2951 RMK SC3AC1 SLP994
                 DENSITY ALT 1400FT =
2018-06-19 11:00 METAR CYSJ 191100Z 33012KT 15SM FEW006 FEW120 19/16 A2949 RMK SC1AC1 SLP989
                 DENSITY ALT 1400FT =
2018-06-19 10:00 METAR CYSJ 191000Z 32011KT 15SM FEW006 FEW120 18/17 A2946 RMK SF1AC1 SF TR
                 SLP980 DENSITY ALT 1300FT =
2018-06-19 09:00 METAR CYSJ 190900Z 32011G17KT 8SM SCT006 BKN076 18/18 A2944 RMK SF4AC3 VIS NW-E
                 4 BR SLP971 DENSITY ALT 1400FT =
2018-06-19 08:55 METAR CYSJ 190855Z 32012G17KT 8SM SCT006 BKN076 18/18 A2943 RMK SF3AC4 VIS NW-E
                 4 BR SLP970 DENSITY ALT 1400FT =
2018-06-19 08:40 METAR CYSJ 190840Z 34009KT 3SM -SHRA BR SCT004 BKN012 OVC070 17/17 A2942 RMK
                 SF3SC2AC3 SLP966 DENSITY ALT 1300FT =
2018-06-19 08:25 METAR CYSJ 190825Z 34009KT 3SM BR SCT003 OVC070 17/17 A2942 RMK SF3AC5 SLP966
                 DENSITY ALT 1300FT =
2018-06-19 08:00 METAR CYSJ 190800Z 34003KT 270V360 2SM -SHRA BR BKN003 OVC008 15/15 A2943 RMK
                 SF6SF2 SLP967 DENSITY ALT 1000FT =
2018-06-19 07:55 METAR CYSJ 190755Z VRB02KT 2SM -SHRA BR BKN003 OVC008 15/15 A2942 RMK SF6SF2
                 SLP966 DENSITY ALT 1000FT =

Support USWX by starting your Amazon purchase here.